Time;durP1;ratioP1;P1;durP2;ratioP2;P2;SDS_P1;SDS_P2;PMS_P1;PMS_P2;Temp;Humidity;BMP_temperature;BMP_pressure;BME280_temperature;BME280_humidity;BME280_pressure;Samples;Min_cycle;Max_cycle;Signal;HPM_P1;HPM_P2
2024/01/06 00:00:40;;;;;;;29.13;14.45;;;;;;;10.54;65.79;100235.53;4835055;29;124149;-70
2024/01/06 00:03:07;;;;;;;26.70;14.63;;;;;;;10.55;65.96;100241.69;4836241;29;124019;-70
2024/01/06 00:05:35;;;;;;;24.90;14.35;;;;;;;10.55;65.79;100245.22;4836982;29;114275;-70
2024/01/06 00:08:02;;;;;;;26.58;14.15;;;;;;;10.54;65.78;100240.00;4850798;28;112786;-70
2024/01/06 00:10:30;;;;;;;25.70;14.73;;;;;;;10.53;65.88;100249.75;4831789;29;124391;-70
2024/01/06 00:12:57;;;;;;;26.15;14.07;;;;;;;10.52;65.88;100254.16;4818196;29;124223;-70
2024/01/06 00:15:24;;;;;;;26.50;14.23;;;;;;;10.52;65.92;100255.97;4831468;29;115169;-70
2024/01/06 00:17:52;;;;;;;25.55;14.20;;;;;;;10.51;65.79;100256.91;4839302;28;113371;-70
2024/01/06 00:20:19;;;;;;;23.92;13.02;;;;;;;10.49;65.73;100253.47;4828701;29;123082;-70
2024/01/06 00:22:48;;;;;;;24.40;12.77;;;;;;;10.46;65.62;100261.59;4851268;29;124014;-70
2024/01/06 00:25:15;;;;;;;24.45;13.18;;;;;;;10.43;65.72;100262.59;4836353;29;114811;-70
2024/01/06 00:27:42;;;;;;;24.38;12.70;;;;;;;10.41;65.79;100260.97;4835645;29;114104;-70
2024/01/06 00:30:10;;;;;;;27.00;13.32;;;;;;;10.40;65.67;100269.88;4836897;29;123193;-70
2024/01/06 00:32:38;;;;;;;22.52;12.25;;;;;;;10.37;65.89;100270.03;4837139;28;123725;-70
2024/01/06 00:35:05;;;;;;;24.98;12.88;;;;;;;10.36;65.61;100271.81;4835168;29;114516;-70
2024/01/06 00:37:33;;;;;;;25.25;12.20;;;;;;;10.34;65.72;100265.75;4836449;29;115495;-71
2024/01/06 00:40:00;;;;;;;23.45;12.50;;;;;;;10.31;65.50;100271.22;4831722;28;123119;-70
2024/01/06 00:42:27;;;;;;;24.17;12.15;;;;;;;10.27;65.61;100270.47;4833666;29;123781;-70
2024/01/06 00:44:54;;;;;;;23.30;11.60;;;;;;;10.27;65.65;100275.78;4831450;29;114670;-70
2024/01/06 00:47:24;;;;;;;23.27;11.38;;;;;;;10.24;65.68;100286.50;4836790;29;114789;-70
2024/01/06 00:49:51;;;;;;;22.23;11.57;;;;;;;10.21;65.68;100281.41;4836904;29;123814;-70
2024/01/06 00:52:18;;;;;;;23.83;11.65;;;;;;;10.18;65.43;100286.84;4835790;28;123605;-70
2024/01/06 00:54:47;;;;;;;22.73;11.45;;;;;;;10.15;65.29;100287.00;4852951;28;113979;-70
2024/01/06 00:57:14;;;;;;;21.73;11.25;;;;;;;10.11;65.37;100291.63;4833383;28;112951;-70
2024/01/06 00:59:42;;;;;;;22.38;11.13;;;;;;;10.07;65.21;100289.19;4835646;29;123978;-70
2024/01/06 01:02:09;;;;;;;20.42;10.75;;;;;;;10.04;65.32;100289.34;4836003;29;123705;-70
2024/01/06 01:04:36;;;;;;;20.02;10.70;;;;;;;10.00;65.45;100293.09;4835511;29;114250;-71
2024/01/06 01:07:04;;;;;;;20.48;10.52;;;;;;;9.98;65.24;100294.97;4834583;29;113740;-70
2024/01/06 01:09:32;;;;;;;20.05;10.38;;;;;;;9.93;65.46;100290.75;4834423;29;124099;-70
2024/01/06 01:11:59;;;;;;;19.60;10.52;;;;;;;9.89;65.29;100296.31;4833597;29;123690;-71
2024/01/06 01:14:27;;;;;;;18.50;9.63;;;;;;;9.86;65.24;100307.88;4836638;29;114308;-70
2024/01/06 01:16:54;;;;;;;19.75;10.05;;;;;;;9.84;65.37;100308.91;4837385;29;114374;-70
2024/01/06 01:19:22;;;;;;;18.75;9.55;;;;;;;9.80;65.09;100313.47;4833869;29;124837;-70
2024/01/06 01:21:49;;;;;;;20.08;10.05;;;;;;;9.78;65.18;100315.34;4833201;29;124687;-70
2024/01/06 01:24:16;;;;;;;19.40;10.18;;;;;;;9.76;65.19;100311.94;4834208;29;115487;-70
2024/01/06 01:26:44;;;;;;;21.27;10.38;;;;;;;9.74;65.32;100319.94;4836529;29;115299;-70
2024/01/06 01:29:11;;;;;;;17.90;9.57;;;;;;;9.74;65.11;100324.38;4833015;29;123882;-71
2024/01/06 01:31:38;;;;;;;20.00;9.20;;;;;;;9.72;65.09;100332.38;4831265;28;122903;-70
2024/01/06 01:34:06;;;;;;;19.52;9.65;;;;;;;9.71;65.17;100335.09;4833651;29;114505;-70
2024/01/06 01:36:33;;;;;;;17.70;9.07;;;;;;;9.68;65.07;100336.13;4835146;29;114088;-71
2024/01/06 01:39:01;;;;;;;20.48;9.63;;;;;;;9.66;65.05;100339.75;4835209;29;123854;-71
2024/01/06 01:41:29;;;;;;;17.45;9.43;;;;;;;9.66;65.02;100342.38;4847615;28;122879;-71
2024/01/06 01:43:59;;;;;;;16.95;9.32;;;;;;;9.63;64.88;100337.28;4837028;29;114125;-71
2024/01/06 01:46:28;;;;;;;16.40;8.63;;;;;;;9.63;64.68;100342.56;4835021;29;113992;-70
2024/01/06 01:48:57;;;;;;;16.70;9.13;;;;;;;9.61;64.91;100344.44;4833942;29;123986;-70
2024/01/06 01:51:28;;;;;;;18.63;10.23;;;;;;;9.60;64.81;100348.84;4828662;29;124002;-70
2024/01/06 01:53:59;;;;;;;18.55;9.48;;;;;;;9.58;64.73;100349.84;4836337;29;114972;-70
2024/01/06 01:56:27;;;;;;;19.52;10.18;;;;;;;9.54;64.73;100355.28;4834776;29;114923;-71
2024/01/06 01:58:55;;;;;;;19.10;9.57;;;;;;;9.51;64.60;100355.44;4830524;29;124334;-70
2024/01/06 02:01:25;;;;;;;17.02;8.88;;;;;;;9.46;64.66;100362.72;4828356;29;123320;-71
2024/01/06 02:03:52;;;;;;;19.42;9.13;;;;;;;9.44;64.80;100369.03;4848213;28;113415;-71
2024/01/06 02:06:20;;;;;;;15.15;8.35;;;;;;;9.38;64.68;100364.91;4835349;29;114004;-70
2024/01/06 02:08:47;;;;;;;16.83;8.27;;;;;;;9.34;64.98;100368.59;4833898;29;123742;-70
2024/01/06 02:11:17;;;;;;;14.68;7.97;;;;;;;9.31;64.42;100368.75;4832990;29;123522;-71
2024/01/06 02:13:44;;;;;;;14.82;7.82;;;;;;;9.25;64.40;100375.19;4835923;29;115674;-70
2024/01/06 02:16:11;;;;;;;15.98;7.40;;;;;;;9.23;64.55;100381.47;4819198;29;114711;-71
2024/01/06 02:18:38;;;;;;;16.58;7.97;;;;;;;9.20;64.64;100377.19;4834909;29;124011;-70
2024/01/06 02:21:06;;;;;;;19.00;9.52;;;;;;;9.20;64.60;100386.91;4832829;29;124653;-71
2024/01/06 02:23:35;;;;;;;13.80;7.25;;;;;;;9.15;64.30;100390.63;4840097;29;112187;-71
2024/01/06 02:26:03;;;;;;;14.90;7.75;;;;;;;9.13;64.53;100395.09;4843323;29;114307;-71
2024/01/06 02:28:30;;;;;;;14.70;7.68;;;;;;;9.11;64.53;100394.31;4838157;29;124005;-71
2024/01/06 02:30:58;;;;;;;13.73;7.55;;;;;;;9.09;64.15;100396.16;4839657;29;124577;-70
2024/01/06 02:33:25;;;;;;;13.38;6.97;;;;;;;9.08;64.88;100405.03;4842491;29;114180;-70
2024/01/06 02:35:53;;;;;;;12.38;7.07;;;;;;;9.06;64.28;100406.00;4842761;29;115044;-70
2024/01/06 02:38:20;;;;;;;13.95;7.40;;;;;;;9.04;64.30;100419.31;4835146;29;124070;-71
2024/01/06 02:40:47;;;;;;;14.95;7.53;;;;;;;9.02;64.63;100415.88;4840209;29;123962;-71
2024/01/06 02:43:14;;;;;;;14.45;7.88;;;;;;;8.99;64.52;100421.31;4855104;29;115697;-70
2024/01/06 02:45:42;;;;;;;17.52;7.97;;;;;;;8.98;64.36;100430.13;4841868;29;114254;-70
2024/01/06 02:48:09;;;;;;;13.65;7.10;;;;;;;8.97;64.49;100423.16;4834843;29;124153;-70
2024/01/06 02:50:37;;;;;;;11.30;6.57;;;;;;;8.94;64.39;100439.13;4858024;28;124376;-70
2024/01/06 02:53:04;;;;;;;11.98;7.00;;;;;;;8.92;64.50;100441.84;4841223;29;113941;-70
2024/01/06 02:55:32;;;;;;;11.55;6.70;;;;;;;8.91;64.12;100447.19;4840345;29;113637;-70
2024/01/06 02:57:59;;;;;;;11.10;6.47;;;;;;;8.90;64.15;100442.84;4838853;28;124045;-71
2024/01/06 03:00:27;;;;;;;11.07;6.10;;;;;;;8.90;64.07;100454.25;4841066;29;124020;-72
2024/01/06 03:02:54;;;;;;;12.55;6.10;;;;;;;8.90;64.05;100453.41;4855207;28;114196;-72
2024/01/06 03:05:22;;;;;;;11.00;6.10;;;;;;;8.89;64.28;100456.97;4851875;28;112909;-70
2024/01/06 03:07:49;;;;;;;11.07;5.75;;;;;;;8.89;64.00;100462.25;4839936;29;124398;-70
2024/01/06 03:10:16;;;;;;;11.57;5.82;;;;;;;8.89;64.16;100460.47;4854954;29;123741;-71
2024/01/06 03:12:43;;;;;;;11.32;6.50;;;;;;;8.89;63.83;100467.53;4839119;29;114356;-70
2024/01/06 03:15:11;;;;;;;11.63;6.32;;;;;;;8.88;63.79;100460.53;4851593;28;114003;-71
2024/01/06 03:17:39;;;;;;;11.30;6.75;;;;;;;8.87;63.80;100464.09;4841442;29;124201;-70
2024/01/06 03:20:07;;;;;;;11.77;6.32;;;;;;;8.87;64.15;100474.66;4848334;29;123971;-70
2024/01/06 03:22:34;;;;;;;13.43;6.93;;;;;;;8.87;63.95;100469.38;4856888;28;113535;-70
2024/01/06 03:25:02;;;;;;;10.75;5.97;;;;;;;8.86;63.63;100467.69;4841286;29;114380;-70
2024/01/06 03:27:30;;;;;;;13.38;7.10;;;;;;;8.86;63.85;100472.97;4863083;28;123753;-70
2024/01/06 03:29:57;;;;;;;11.25;6.30;;;;;;;8.85;63.83;100465.94;4834791;29;123488;-70
2024/01/06 03:32:24;;;;;;;11.82;6.47;;;;;;;8.84;63.81;100475.66;4841382;29;114605;-75
2024/01/06 03:34:52;;;;;;;9.73;5.22;;;;;;;8.84;63.90;100480.09;4835788;29;114326;-70
2024/01/06 03:37:22;;;;;;;12.80;5.90;;;;;;;8.83;63.71;100475.72;4836286;29;124134;-70
2024/01/06 03:39:49;;;;;;;13.57;6.53;;;;;;;8.83;64.01;100488.94;4836674;29;123706;-70
2024/01/06 03:42:17;;;;;;;12.15;6.13;;;;;;;8.80;63.83;100489.03;4851672;28;113298;-70
2024/01/06 03:44:44;;;;;;;12.38;5.15;;;;;;;8.74;63.52;100485.78;4839593;29;113979;-71
2024/01/06 03:47:12;;;;;;;11.52;5.10;;;;;;;8.71;63.71;100501.72;4851477;28;122713;-70
2024/01/06 03:49:39;;;;;;;13.93;5.43;;;;;;;8.68;63.67;100496.59;4836697;29;124040;-70
2024/01/06 03:52:07;;;;;;;12.65;5.45;;;;;;;8.66;63.89;100503.69;4849165;29;116915;-71
2024/01/06 03:54:34;;;;;;;17.58;6.60;;;;;;;8.63;63.88;100503.84;4854344;28;113898;-70
2024/01/06 03:57:02;;;;;;;13.40;5.82;;;;;;;8.59;64.12;100502.28;4838428;29;124195;-71
2024/01/06 03:59:29;;;;;;;15.02;6.18;;;;;;;8.56;63.88;100507.66;4838535;29;124043;-71
2024/01/06 04:01:56;;;;;;;14.30;5.95;;;;;;;8.52;63.74;100506.09;4835853;29;114657;-70
2024/01/06 04:04:24;;;;;;;15.00;5.55;;;;;;;8.49;64.01;100511.47;4836500;29;114250;-70
2024/01/06 04:06:51;;;;;;;12.45;5.93;;;;;;;8.47;64.45;100513.31;4837154;29;124058;-70
2024/01/06 04:09:19;;;;;;;13.00;6.15;;;;;;;8.46;63.81;100523.03;4836742;29;123910;-70
2024/01/06 04:11:47;;;;;;;14.20;5.85;;;;;;;8.45;63.85;100525.72;4834401;29;114238;-70
2024/01/06 04:14:14;;;;;;;16.23;6.65;;;;;;;8.44;64.06;100534.56;4850735;29;113379;-70
2024/01/06 04:16:42;;;;;;;12.70;5.85;;;;;;;8.44;63.89;100524.00;4836395;29;124138;-70
2024/01/06 04:19:11;;;;;;;13.25;6.10;;;;;;;8.42;63.93;100525.84;4838113;29;124118;-71
2024/01/06 04:21:40;;;;;;;12.27;5.75;;;;;;;8.39;63.95;100532.94;4850837;29;114572;-70
2024/01/06 04:24:08;;;;;;;12.23;5.72;;;;;;;8.39;64.15;100532.94;4835664;29;114345;-70
2024/01/06 04:26:36;;;;;;;16.42;6.45;;;;;;;8.39;64.13;100538.22;4848964;28;124152;-71
2024/01/06 04:29:03;;;;;;;13.30;5.65;;;;;;;8.39;64.07;100538.22;4852745;28;123109;-70
2024/01/06 04:31:30;;;;;;;12.75;5.57;;;;;;;8.39;64.32;100538.22;4836373;29;114107;-71
2024/01/06 04:33:58;;;;;;;13.10;5.50;;;;;;;8.41;63.82;100539.94;4835367;29;114015;-71
2024/01/06 04:36:25;;;;;;;12.38;5.40;;;;;;;8.41;64.10;100545.22;4837620;29;124442;-70
2024/01/06 04:38:53;;;;;;;13.52;6.20;;;;;;;8.39;63.79;100548.78;4835994;29;123539;-70
2024/01/06 04:41:21;;;;;;;13.25;6.25;;;;;;;8.39;63.99;100548.78;4844922;28;114227;-71
2024/01/06 04:43:48;;;;;;;13.20;5.63;;;;;;;8.38;64.20;100555.00;4853050;28;113918;-71
2024/01/06 04:46:15;;;;;;;15.57;6.20;;;;;;;8.39;63.96;100559.31;4835385;29;124062;-70
2024/01/06 04:48:43;;;;;;;15.32;6.63;;;;;;;8.41;64.08;100555.78;4836983;28;123242;-71
2024/01/06 04:51:11;;;;;;;12.35;5.93;;;;;;;8.39;64.12;100563.75;4843814;29;115551;-70
2024/01/06 04:53:38;;;;;;;14.38;6.00;;;;;;;8.41;64.14;100561.06;4846660;29;114086;-70
2024/01/06 04:56:06;;;;;;;14.98;6.25;;;;;;;8.41;63.94;100561.06;4845528;29;124741;-70
2024/01/06 04:58:34;;;;;;;12.85;5.85;;;;;;;8.43;63.94;100564.53;4834352;29;123655;-70
2024/01/06 05:01:02;;;;;;;12.43;6.22;;;;;;;8.43;64.00;100569.81;4852392;28;113773;-70
2024/01/06 05:03:30;;;;;;;13.38;5.88;;;;;;;8.44;63.99;100571.50;4837634;29;114473;-73
2024/01/06 05:05:57;;;;;;;15.98;5.88;;;;;;;8.45;64.05;100570.59;4835624;29;123900;-70
2024/01/06 05:08:25;;;;;;;13.30;5.93;;;;;;;8.46;64.06;100574.97;4837666;29;124341;-70
2024/01/06 05:10:53;;;;;;;12.35;5.72;;;;;;;8.45;64.03;100578.50;4835773;29;114189;-70
2024/01/06 05:13:20;;;;;;;15.13;6.22;;;;;;;8.44;64.08;100582.06;4848908;29;114407;-70
2024/01/06 05:15:48;;;;;;;12.00;5.38;;;;;;;8.44;64.03;100587.34;4851881;28;123216;-70
2024/01/06 05:18:17;;;;;;;13.82;5.93;;;;;;;8.43;64.02;100583.00;4836703;29;123953;-71
2024/01/06 05:20:44;;;;;;;11.32;5.50;;;;;;;8.44;64.08;100587.34;4852015;28;113054;-70
2024/01/06 05:23:12;;;;;;;13.52;5.93;;;;;;;8.43;63.96;100590.91;4835959;29;114564;-70
2024/01/06 05:25:39;;;;;;;13.13;6.10;;;;;;;8.44;63.88;100587.34;4849550;29;123641;-70
2024/01/06 05:28:06;;;;;;;12.35;5.85;;;;;;;8.47;63.94;100597.78;4852084;28;122664;-70
2024/01/06 05:30:34;;;;;;;14.02;6.30;;;;;;;8.48;63.91;100594.25;4833918;29;115504;-70
2024/01/06 05:33:02;;;;;;;13.98;6.22;;;;;;;8.47;64.18;100598.63;4835558;29;114873;-70
2024/01/06 05:35:30;;;;;;;11.32;5.40;;;;;;;8.50;63.98;100597.66;4834477;29;124773;-70
2024/01/06 05:37:57;;;;;;;11.98;5.80;;;;;;;8.52;64.03;100595.81;4851787;28;123729;-71
2024/01/06 05:40:24;;;;;;;12.52;5.43;;;;;;;8.53;63.89;100597.53;4835773;29;113952;-70
2024/01/06 05:42:55;;;;;;;13.77;5.28;;;;;;;8.53;63.92;100597.53;4835602;29;113531;-70
2024/01/06 05:45:22;;;;;;;12.07;5.57;;;;;;;8.52;63.94;100603.75;4847248;28;124239;-70
2024/01/06 05:47:51;;;;;;;12.23;5.57;;;;;;;8.52;63.99;100607.22;4836629;29;124263;-70
2024/01/06 05:50:19;;;;;;;14.27;5.53;;;;;;;8.50;63.93;100601.16;4835099;29;114229;-70
2024/01/06 05:52:48;;;;;;;12.68;5.80;;;;;;;8.48;63.77;100615.34;4827966;29;114560;-70
2024/01/06 05:55:15;;;;;;;15.15;6.50;;;;;;;8.44;63.88;100624.28;4834901;29;123796;-71
2024/01/06 05:57:43;;;;;;;12.80;5.95;;;;;;;8.37;63.71;100629.78;4836079;29;125244;-70
2024/01/06 06:00:11;;;;;;;16.38;6.50;;;;;;;8.32;63.88;100626.47;4851119;29;114208;-70
2024/01/06 06:02:41;;;;;;;15.02;6.72;;;;;;;8.30;63.79;100633.56;4845609;29;114348;-70
2024/01/06 06:05:08;;;;;;;16.48;6.55;;;;;;;8.29;63.91;100637.16;4847368;28;123092;-70
2024/01/06 06:07:38;;;;;;;16.35;6.40;;;;;;;8.27;63.78;100628.44;4833385;29;123423;-70
2024/01/06 06:10:11;;;;;;;15.52;6.68;;;;;;;8.26;63.86;100645.16;4815956;29;113283;-70
2024/01/06 06:12:40;;;;;;;14.75;5.82;;;;;;;8.24;63.90;100644.38;4850032;29;113938;-70
2024/01/06 06:15:07;;;;;;;14.60;5.97;;;;;;;8.24;64.09;100649.66;4836276;29;123876;-70
2024/01/06 06:17:35;;;;;;;14.30;6.10;;;;;;;8.22;63.61;100650.63;4834269;29;124298;-70
2024/01/06 06:20:03;;;;;;;16.25;6.38;;;;;;;8.20;63.90;100658.59;4834910;29;115915;-70
2024/01/06 06:22:30;;;;;;;16.33;7.00;;;;;;;8.20;64.11;100658.59;4833824;29;113856;-70
2024/01/06 06:24:59;;;;;;;16.20;6.47;;;;;;;8.20;64.03;100663.88;4836797;29;124592;-70
2024/01/06 06:27:27;;;;;;;14.50;6.40;;;;;;;8.18;63.95;100665.72;4836272;29;123947;-70
2024/01/06 06:29:56;;;;;;;14.05;5.85;;;;;;;8.17;63.72;100669.25;4848322;29;114344;-70
2024/01/06 06:32:24;;;;;;;14.32;6.15;;;;;;;8.16;64.04;100672.84;4833084;29;113095;-70
2024/01/06 06:34:52;;;;;;;13.38;5.57;;;;;;;8.15;63.79;100681.66;4834496;29;123947;-70
2024/01/06 06:37:20;;;;;;;15.40;6.10;;;;;;;8.13;64.06;100683.50;4826577;29;123398;-70
2024/01/06 06:39:48;;;;;;;15.95;6.07;;;;;;;8.13;64.06;100686.13;4840469;28;112866;-70
2024/01/06 06:42:15;;;;;;;10.95;4.78;;;;;;;8.12;63.91;100693.19;4832848;29;113638;-70
2024/01/06 06:44:43;;;;;;;10.55;4.68;;;;;;;8.11;63.87;100690.59;4833669;29;124830;-70
2024/01/06 06:47:10;;;;;;;10.05;4.78;;;;;;;8.07;63.81;100699.56;4834135;29;123968;-71
2024/01/06 06:49:37;;;;;;;10.38;4.72;;;;;;;8.05;63.67;100704.88;4840032;28;113144;-71
2024/01/06 06:52:06;;;;;;;10.05;4.85;;;;;;;8.02;63.90;100712.91;4844774;28;114830;-74
2024/01/06 06:54:34;;;;;;;9.85;4.65;;;;;;;7.99;63.55;100708.59;4835397;29;124385;-71
2024/01/06 06:57:03;;;;;;;10.40;5.07;;;;;;;7.96;64.01;100724.53;4831438;29;123869;-71
2024/01/06 06:59:30;;;;;;;12.27;5.07;;;;;;;7.93;63.70;100727.28;4846683;29;114292;-71
2024/01/06 07:01:57;;;;;;;11.65;4.97;;;;;;;7.90;63.86;100737.94;4847393;29;113750;-71
2024/01/06 07:04:25;;;;;;;12.50;4.63;;;;;;;7.86;63.99;100736.34;4849926;29;123988;-70
2024/01/06 07:06:53;;;;;;;12.10;5.25;;;;;;;7.83;63.93;100744.34;4836184;29;124274;-72
2024/01/06 07:09:23;;;;;;;12.70;4.60;;;;;;;7.79;63.70;100737.47;4834194;29;115328;-71
2024/01/06 07:11:51;;;;;;;10.05;4.35;;;;;;;7.76;63.86;100748.09;4837375;29;115004;-71
2024/01/06 07:14:19;;;;;;;10.20;5.18;;;;;;;7.72;63.59;100751.75;4849610;28;123607;-71
2024/01/06 07:16:46;;;;;;;11.85;4.75;;;;;;;7.68;63.70;100755.44;4838364;29;123950;-70
2024/01/06 07:19:13;;;;;;;10.23;4.97;;;;;;;7.63;63.73;100762.63;4853827;29;113324;-71
2024/01/06 07:21:41;;;;;;;8.77;3.90;;;;;;;7.60;63.94;100769.72;4851620;28;113017;-71
2024/01/06 07:24:08;;;;;;;10.48;4.22;;;;;;;7.56;63.71;100768.09;4834678;29;124405;-71
2024/01/06 07:26:36;;;;;;;10.57;4.13;;;;;;;7.53;63.85;100773.47;4837936;29;123510;-71
2024/01/06 07:29:03;;;;;;;9.38;4.53;;;;;;;7.52;63.58;100782.31;4850416;28;113502;-71
2024/01/06 07:31:30;;;;;;;11.82;5.38;;;;;;;7.49;63.89;100782.41;4837494;29;113008;-71
2024/01/06 07:33:58;;;;;;;11.02;5.85;;;;;;;7.48;63.70;100785.97;4834104;28;123242;-71
2024/01/06 07:36:26;;;;;;;12.55;5.85;;;;;;;7.45;63.58;100791.31;4834116;29;124248;-71
2024/01/06 07:39:10;;;;;;;12.23;5.75;;;;;;;7.44;63.88;100789.63;4848491;28;114734;-72
2024/01/06 07:41:55;;;;;;;13.30;6.15;;;;;;;7.41;63.86;100792.34;4833252;29;113700;-71
2024/01/06 07:44:24;;;;;;;11.63;5.47;;;;;;;7.38;63.82;100795.06;4838185;29;124168;-71
2024/01/06 07:46:52;;;;;;;10.38;5.40;;;;;;;7.34;63.78;100799.56;4837213;29;124484;-72
2024/01/06 07:49:20;;;;;;;11.88;5.53;;;;;;;7.31;63.57;100801.44;4834603;29;114156;-71
2024/01/06 07:51:47;;;;;;;10.73;5.70;;;;;;;7.31;63.85;100809.34;4848629;28;114189;-71
2024/01/06 07:54:15;;;;;;;10.75;4.90;;;;;;;7.28;64.05;100814.72;4836376;29;125531;-71
2024/01/06 07:56:43;;;;;;;10.90;5.45;;;;;;;7.26;63.91;100817.41;4837192;29;124062;-72
2024/01/06 07:59:11;;;;;;;12.60;5.32;;;;;;;7.24;63.74;100818.38;4835868;29;115392;-71
2024/01/06 08:01:38;;;;;;;12.68;6.22;;;;;;;7.24;63.74;100818.38;4825676;29;114702;-72
2024/01/06 08:04:05;;;;;;;11.70;5.70;;;;;;;7.21;63.72;100825.47;4827126;29;124764;-71
2024/01/06 08:06:33;;;;;;;10.65;5.78;;;;;;;7.19;64.15;100832.53;4840323;28;123891;-71
2024/01/06 08:09:01;;;;;;;11.35;5.43;;;;;;;7.19;63.93;100831.69;4849525;29;114098;-71
2024/01/06 08:11:30;;;;;;;11.18;5.03;;;;;;;7.17;63.98;100836.97;4836699;29;113634;-72
2024/01/06 08:13:57;;;;;;;9.05;5.25;;;;;;;7.16;63.84;100848.44;4838194;29;124402;-71
2024/01/06 08:16:26;;;;;;;12.88;6.47;;;;;;;7.16;63.84;100848.44;4845038;28;123442;-71
2024/01/06 08:18:53;;;;;;;11.52;6.00;;;;;;;7.15;64.08;100851.97;4832600;29;114008;-71
2024/01/06 08:21:21;;;;;;;11.20;6.05;;;;;;;7.13;63.94;100853.78;4836688;29;113690;-72
2024/01/06 08:23:48;;;;;;;11.20;5.20;;;;;;;7.12;63.67;100867.91;4846826;28;122975;-71
2024/01/06 08:26:16;;;;;;;13.48;5.90;;;;;;;7.13;64.03;100864.31;4846172;28;122846;-71
2024/01/06 08:28:43;;;;;;;9.18;5.45;;;;;;;7.13;64.11;100866.97;4847154;29;113393;-71
2024/01/06 08:31:10;;;;;;;10.00;5.45;;;;;;;7.13;63.99;100869.59;4858506;28;114291;-71
2024/01/06 08:33:39;;;;;;;10.18;5.80;;;;;;;7.11;63.96;100879.31;4852847;28;123360;-71
2024/01/06 08:36:06;;;;;;;13.23;6.03;;;;;;;7.12;64.08;100883.69;4837399;29;123782;-71
2024/01/06 08:38:34;;;;;;;11.35;5.90;;;;;;;7.13;64.20;100895.94;4847633;29;114522;-71
2024/01/06 08:41:01;;;;;;;10.55;5.70;;;;;;;7.14;63.85;100897.69;4832079;29;114077;-71
2024/01/06 08:43:29;;;;;;;12.80;6.47;;;;;;;7.14;64.05;100900.31;4845404;28;123261;-71
2024/01/06 08:45:56;;;;;;;12.02;6.00;;;;;;;7.13;64.15;100901.19;4840152;28;122843;-71
2024/01/06 08:48:24;;;;;;;11.52;6.13;;;;;;;7.15;64.38;100909.91;4841014;28;114913;-70
2024/01/06 08:50:51;;;;;;;13.60;6.55;;;;;;;7.16;64.23;100911.66;4834429;29;114401;-70
2024/01/06 08:53:19;;;;;;;13.27;6.38;;;;;;;7.18;64.08;100920.38;4846347;28;123043;-70
2024/01/06 08:55:46;;;;;;;13.57;6.47;;;;;;;7.17;63.81;100918.63;4851159;28;123286;-71
2024/01/06 08:58:13;;;;;;;11.93;5.88;;;;;;;7.17;63.95;100918.63;4833575;29;114189;-70
2024/01/06 09:00:41;;;;;;;11.73;5.93;;;;;;;7.17;63.97;100917.78;4836115;29;114194;-70
2024/01/06 09:03:09;;;;;;;11.73;6.28;;;;;;;7.17;63.70;100918.63;4835311;29;123936;-70
2024/01/06 09:05:37;;;;;;;11.07;6.00;;;;;;;7.16;63.84;100922.19;4829228;28;123625;-70
2024/01/06 09:08:05;;;;;;;12.48;5.80;;;;;;;7.16;63.84;100930.09;4835666;29;113235;-70
2024/01/06 09:10:32;;;;;;;10.95;5.65;;;;;;;7.15;63.89;100925.72;4834605;29;113818;-70
2024/01/06 09:13:01;;;;;;;10.93;5.50;;;;;;;7.14;63.94;100928.41;4848410;28;123061;-70
2024/01/06 09:15:28;;;;;;;11.30;5.75;;;;;;;7.14;63.92;100939.81;4831206;29;123952;-70
2024/01/06 09:17:56;;;;;;;10.90;5.50;;;;;;;7.13;63.78;100948.63;4834814;29;113830;-70
2024/01/06 09:20:23;;;;;;;9.95;5.25;;;;;;;7.13;63.90;100951.25;4836091;28;113557;-70
2024/01/06 09:22:51;;;;;;;10.57;5.43;;;;;;;7.16;63.87;100959.06;4834496;29;124201;-70
2024/01/06 09:25:18;;;;;;;10.40;5.28;;;;;;;7.17;63.90;100954.66;4836277;29;124063;-70
2024/01/06 09:27:47;;;;;;;11.40;5.45;;;;;;;7.16;63.77;100964.34;4835406;29;113676;-70
2024/01/06 09:30:14;;;;;;;12.45;5.70;;;;;;;7.15;63.67;100962.59;4830658;29;114349;-70
2024/01/06 09:32:41;;;;;;;10.95;5.53;;;;;;;7.16;63.86;100974.88;4827409;29;124034;-70
2024/01/06 09:35:09;;;;;;;10.90;5.35;;;;;;;7.17;63.93;100971.31;4833962;29;124573;-70
2024/01/06 09:37:36;;;;;;;11.63;5.68;;;;;;;7.18;63.72;100978.31;4829118;29;115251;-70
2024/01/06 09:40:04;;;;;;;14.40;5.95;;;;;;;7.18;63.89;100983.59;4848803;28;114738;-70
2024/01/06 09:42:31;;;;;;;11.63;5.75;;;;;;;7.21;63.85;100994.06;4849938;28;122559;-70
2024/01/06 09:44:59;;;;;;;10.63;5.13;;;;;;;7.24;63.43;100992.22;4829469;29;123919;-70
2024/01/06 09:47:28;;;;;;;9.98;5.57;;;;;;;7.26;63.97;100990.41;4833050;29;114931;-70
2024/01/06 09:50:00;;;;;;;11.43;5.75;;;;;;;7.26;63.57;100995.69;4833704;29;114154;-70
2024/01/06 09:52:32;;;;;;;11.75;5.75;;;;;;;7.27;63.63;101007.94;4830232;29;124463;-70
2024/01/06 09:55:02;;;;;;;9.85;5.30;;;;;;;7.27;63.52;101013.19;4830868;29;123857;-70
2024/01/06 09:57:29;;;;;;;11.85;5.40;;;;;;;7.26;63.56;101012.34;4832981;29;114146;-70
2024/01/06 09:59:57;;;;;;;13.25;5.70;;;;;;;7.25;63.35;101020.28;4839097;29;113776;-70
2024/01/06 10:02:25;;;;;;;9.13;4.72;;;;;;;7.22;63.71;101016.84;4831944;29;124407;-70
2024/01/06 10:04:53;;;;;;;11.32;5.50;;;;;;;7.22;63.79;101015.97;4840721;28;123463;-70
2024/01/06 10:07:20;;;;;;;10.77;5.32;;;;;;;7.21;63.48;101020.41;4835900;29;114560;-70
2024/01/06 10:09:47;;;;;;;12.00;5.93;;;;;;;7.22;63.54;101022.09;4838540;28;113246;-70
2024/01/06 10:12:15;;;;;;;12.88;6.03;;;;;;;7.22;63.86;101026.50;4834208;29;124063;-70
2024/01/06 10:14:43;;;;;;;14.23;6.00;;;;;;;7.20;63.57;101026.56;4850853;29;123820;-70
2024/01/06 10:17:11;;;;;;;14.77;6.32;;;;;;;7.20;63.49;101029.19;4851364;28;113027;-70
2024/01/06 10:19:38;;;;;;;13.38;6.43;;;;;;;7.21;63.63;101038.84;4848671;29;114169;-70
2024/01/06 10:22:06;;;;;;;17.20;7.30;;;;;;;7.21;63.92;101041.47;4834535;29;124416;-70
2024/01/06 10:24:37;;;;;;;13.60;6.63;;;;;;;7.19;63.59;101032.72;4829543;29;124477;-70
2024/01/06 10:27:05;;;;;;;14.35;6.63;;;;;;;7.21;63.42;101036.19;4832256;29;115294;-70
2024/01/06 10:29:32;;;;;;;13.85;6.07;;;;;;;7.19;63.63;101035.34;4828771;28;114256;-70
2024/01/06 10:31:59;;;;;;;15.50;6.40;;;;;;;7.20;63.72;101034.47;4832911;29;123624;-70
2024/01/06 10:34:28;;;;;;;11.65;5.97;;;;;;;7.20;63.74;101038.88;4835705;28;123190;-70
2024/01/06 10:36:56;;;;;;;13.50;6.30;;;;;;;7.20;63.31;101044.13;4835596;29;114271;-70
2024/01/06 10:39:24;;;;;;;15.73;6.28;;;;;;;7.19;63.55;101043.25;4831673;29;113419;-70
2024/01/06 10:41:52;;;;;;;13.13;6.10;;;;;;;7.18;63.85;101044.16;4823286;29;124401;-70
2024/01/06 10:44:21;;;;;;;13.43;6.20;;;;;;;7.18;63.61;101041.53;4847942;28;122830;-71
2024/01/06 10:46:49;;;;;;;12.13;6.40;;;;;;;7.19;63.54;101048.50;4837762;29;114403;-70
2024/01/06 10:49:21;;;;;;;13.88;6.45;;;;;;;7.20;63.73;101049.41;4837439;29;113942;-70
2024/01/06 10:51:49;;;;;;;12.90;5.80;;;;;;;7.19;64.05;101048.50;4832745;29;124400;-70
2024/01/06 10:54:18;;;;;;;13.00;6.05;;;;;;;7.20;63.71;101055.53;4836597;29;124457;-70
2024/01/06 10:56:48;;;;;;;15.40;6.22;;;;;;;7.18;63.61;101057.34;4836837;29;114299;-70
2024/01/06 10:59:16;;;;;;;12.25;5.78;;;;;;;7.17;63.61;101058.22;4837979;29;113992;-71
2024/01/06 11:01:44;;;;;;;13.98;6.30;;;;;;;7.17;63.50;101063.50;4849392;28;123524;-70
2024/01/06 11:04:13;;;;;;;12.68;6.35;;;;;;;7.19;63.82;101058.19;4836158;29;124332;-70
2024/01/06 11:06:41;;;;;;;19.95;7.10;;;;;;;7.19;63.67;101064.31;4834879;28;114135;-70
2024/01/06 11:09:08;;;;;;;13.50;6.25;;;;;;;7.20;63.62;101066.06;4835996;29;113797;-70
2024/01/06 11:11:39;;;;;;;12.00;6.22;;;;;;;7.18;63.40;101067.88;4833783;29;122779;-70
2024/01/06 11:14:25;;;;;;;13.40;6.30;;;;;;;7.16;63.34;101069.69;4834427;29;123900;-71
2024/01/06 11:16:54;;;;;;;14.55;6.32;;;;;;;7.15;63.50;101067.94;4851152;29;115993;-71
2024/01/06 11:19:34;;;;;;;13.63;6.43;;;;;;;7.14;63.46;101076.78;4852450;28;114735;-70